Terminal Aerodrome Forecast
Issued by NWS

Current Version | Previous Version | Text Only | Print | Product List | Glossary Off
Versions: 1 2 3 4 5 6 7 8 9 10 11 12 13 14 15 16 17 18 19 20 21 22 23 24

000
FTUS44 KSJT 211700
TAFSOA
TAF
KSOA 211736Z 2118/2218 17014G20KT P6SM SCT050
     FM220100 16011KT P6SM SKC
     FM220900 17011KT P6SM BKN020
     FM221500 17015G23KT P6SM SKC=

USA.gov is the U.S. government's official web portal to all federal, state and local government web resources and services.